sensor_id;sensor_type;location;lat;lon;timestamp;P1;durP1;ratioP1;P2;durP2;ratioP2
83556;SDS011;73523;55.740;13.276;2024-01-30T00:00:36;2.25;;;2.05;;
83556;SDS011;73523;55.740;13.276;2024-01-30T00:03:01;2.50;;;2.10;;
83556;SDS011;73523;55.740;13.276;2024-01-30T00:05:27;2.10;;;1.90;;
83556;SDS011;73523;55.740;13.276;2024-01-30T00:07:52;2.07;;;1.90;;
83556;SDS011;73523;55.740;13.276;2024-01-30T00:10:17;2.37;;;2.00;;
83556;SDS011;73523;55.740;13.276;2024-01-30T00:12:43;2.40;;;1.95;;
83556;SDS011;73523;55.740;13.276;2024-01-30T00:15:08;3.13;;;1.80;;
83556;SDS011;73523;55.740;13.276;2024-01-30T00:17:35;2.55;;;2.05;;
83556;SDS011;73523;55.740;13.276;2024-01-30T00:20:01;2.15;;;1.77;;
83556;SDS011;73523;55.740;13.276;2024-01-30T00:22:30;2.25;;;1.90;;
83556;SDS011;73523;55.740;13.276;2024-01-30T00:24:55;2.00;;;1.80;;
83556;SDS011;73523;55.740;13.276;2024-01-30T00:27:21;2.28;;;1.70;;
83556;SDS011;73523;55.740;13.276;2024-01-30T00:29:46;2.17;;;1.97;;
83556;SDS011;73523;55.740;13.276;2024-01-30T00:32:13;1.88;;;1.67;;
83556;SDS011;73523;55.740;13.276;2024-01-30T00:34:38;2.10;;;1.70;;
83556;SDS011;73523;55.740;13.276;2024-01-30T00:37:04;2.15;;;1.90;;
83556;SDS011;73523;55.740;13.276;2024-01-30T00:39:29;2.60;;;1.60;;
83556;SDS011;73523;55.740;13.276;2024-01-30T00:41:54;2.00;;;1.80;;
83556;SDS011;73523;55.740;13.276;2024-01-30T00:44:20;2.10;;;1.80;;
83556;SDS011;73523;55.740;13.276;2024-01-30T00:46:45;2.00;;;1.67;;
83556;SDS011;73523;55.740;13.276;2024-01-30T00:49:11;2.17;;;1.70;;
83556;SDS011;73523;55.740;13.276;2024-01-30T00:51:36;2.70;;;1.80;;
83556;SDS011;73523;55.740;13.276;2024-01-30T00:54:01;1.90;;;1.70;;
83556;SDS011;73523;55.740;13.276;2024-01-30T00:56:27;1.80;;;1.63;;
83556;SDS011;73523;55.740;13.276;2024-01-30T00:58:53;1.90;;;1.67;;
83556;SDS011;73523;55.740;13.276;2024-01-30T01:01:18;2.00;;;1.60;;
83556;SDS011;73523;55.740;13.276;2024-01-30T01:03:44;2.20;;;1.50;;
83556;SDS011;73523;55.740;13.276;2024-01-30T01:06:09;1.80;;;1.60;;
83556;SDS011;73523;55.740;13.276;2024-01-30T01:08:35;1.93;;;1.50;;
83556;SDS011;73523;55.740;13.276;2024-01-30T01:11:01;2.00;;;1.70;;
83556;SDS011;73523;55.740;13.276;2024-01-30T01:13:26;1.63;;;1.30;;
83556;SDS011;73523;55.740;13.276;2024-01-30T01:15:51;2.03;;;1.60;;
83556;SDS011;73523;55.740;13.276;2024-01-30T01:18:17;2.40;;;1.67;;
83556;SDS011;73523;55.740;13.276;2024-01-30T01:20:42;1.93;;;1.43;;
83556;SDS011;73523;55.740;13.276;2024-01-30T01:23:07;1.70;;;1.48;;
83556;SDS011;73523;55.740;13.276;2024-01-30T01:25:33;1.77;;;1.40;;
83556;SDS011;73523;55.740;13.276;2024-01-30T01:27:58;1.50;;;1.40;;
83556;SDS011;73523;55.740;13.276;2024-01-30T01:30:26;1.58;;;1.48;;
83556;SDS011;73523;55.740;13.276;2024-01-30T01:32:51;1.90;;;1.60;;
83556;SDS011;73523;55.740;13.276;2024-01-30T01:35:23;1.70;;;1.60;;
83556;SDS011;73523;55.740;13.276;2024-01-30T01:37:50;2.28;;;1.50;;
83556;SDS011;73523;55.740;13.276;2024-01-30T01:40:24;1.90;;;1.30;;
83556;SDS011;73523;55.740;13.276;2024-01-30T01:42:50;1.60;;;1.35;;
83556;SDS011;73523;55.740;13.276;2024-01-30T01:45:17;1.77;;;1.45;;
83556;SDS011;73523;55.740;13.276;2024-01-30T01:47:42;2.00;;;1.42;;
83556;SDS011;73523;55.740;13.276;2024-01-30T01:50:11;2.22;;;1.70;;
83556;SDS011;73523;55.740;13.276;2024-01-30T01:52:38;1.40;;;1.30;;
83556;SDS011;73523;55.740;13.276;2024-01-30T01:55:05;2.28;;;1.30;;
83556;SDS011;73523;55.740;13.276;2024-01-30T01:57:31;1.50;;;1.40;;
83556;SDS011;73523;55.740;13.276;2024-01-30T01:59:56;1.97;;;1.60;;
83556;SDS011;73523;55.740;13.276;2024-01-30T02:02:23;2.45;;;1.30;;
83556;SDS011;73523;55.740;13.276;2024-01-30T02:04:50;1.83;;;1.50;;
83556;SDS011;73523;55.740;13.276;2024-01-30T02:07:15;1.50;;;1.40;;
83556;SDS011;73523;55.740;13.276;2024-01-30T02:09:41;1.55;;;1.40;;
83556;SDS011;73523;55.740;13.276;2024-01-30T02:12:06;2.50;;;1.60;;
83556;SDS011;73523;55.740;13.276;2024-01-30T02:14:32;1.33;;;1.23;;
83556;SDS011;73523;55.740;13.276;2024-01-30T02:16:57;1.57;;;1.40;;
83556;SDS011;73523;55.740;13.276;2024-01-30T02:19:22;1.60;;;1.47;;
83556;SDS011;73523;55.740;13.276;2024-01-30T02:21:48;1.97;;;1.43;;
83556;SDS011;73523;55.740;13.276;2024-01-30T02:24:13;2.03;;;1.40;;
83556;SDS011;73523;55.740;13.276;2024-01-30T02:26:38;1.80;;;1.50;;
83556;SDS011;73523;55.740;13.276;2024-01-30T02:29:04;2.63;;;1.67;;
83556;SDS011;73523;55.740;13.276;2024-01-30T02:31:29;1.77;;;1.40;;
83556;SDS011;73523;55.740;13.276;2024-01-30T02:33:54;1.83;;;1.30;;
83556;SDS011;73523;55.740;13.276;2024-01-30T02:36:19;1.50;;;1.33;;
83556;SDS011;73523;55.740;13.276;2024-01-30T02:38:45;1.43;;;1.20;;
83556;SDS011;73523;55.740;13.276;2024-01-30T02:41:11;2.20;;;1.55;;
83556;SDS011;73523;55.740;13.276;2024-01-30T02:43:36;1.70;;;1.60;;
83556;SDS011;73523;55.740;13.276;2024-01-30T02:46:02;2.03;;;1.40;;
83556;SDS011;73523;55.740;13.276;2024-01-30T02:48:27;1.23;;;1.07;;
83556;SDS011;73523;55.740;13.276;2024-01-30T02:50:52;2.10;;;1.30;;
83556;SDS011;73523;55.740;13.276;2024-01-30T02:53:18;1.30;;;1.00;;
83556;SDS011;73523;55.740;13.276;2024-01-30T02:55:43;2.13;;;1.57;;
83556;SDS011;73523;55.740;13.276;2024-01-30T02:58:09;2.08;;;1.30;;
83556;SDS011;73523;55.740;13.276;2024-01-30T03:00:34;1.67;;;1.30;;
83556;SDS011;73523;55.740;13.276;2024-01-30T03:02:59;2.10;;;1.30;;
83556;SDS011;73523;55.740;13.276;2024-01-30T03:05:25;1.90;;;1.30;;
83556;SDS011;73523;55.740;13.276;2024-01-30T03:07:50;2.50;;;1.33;;
83556;SDS011;73523;55.740;13.276;2024-01-30T03:10:15;2.70;;;1.45;;
83556;SDS011;73523;55.740;13.276;2024-01-30T03:12:41;2.30;;;1.50;;
83556;SDS011;73523;55.740;13.276;2024-01-30T03:15:06;2.30;;;1.33;;
83556;SDS011;73523;55.740;13.276;2024-01-30T03:17:32;2.20;;;1.50;;
83556;SDS011;73523;55.740;13.276;2024-01-30T03:19:57;2.20;;;1.30;;
83556;SDS011;73523;55.740;13.276;2024-01-30T03:22:22;1.95;;;1.55;;
83556;SDS011;73523;55.740;13.276;2024-01-30T03:24:48;2.60;;;1.70;;
83556;SDS011;73523;55.740;13.276;2024-01-30T03:27:13;2.83;;;1.63;;
83556;SDS011;73523;55.740;13.276;2024-01-30T03:29:38;2.70;;;1.50;;
83556;SDS011;73523;55.740;13.276;2024-01-30T03:32:04;2.43;;;1.87;;
83556;SDS011;73523;55.740;13.276;2024-01-30T03:34:29;2.13;;;1.50;;
83556;SDS011;73523;55.740;13.276;2024-01-30T03:36:55;2.57;;;1.77;;
83556;SDS011;73523;55.740;13.276;2024-01-30T03:39:20;1.80;;;1.50;;
83556;SDS011;73523;55.740;13.276;2024-01-30T03:41:45;1.97;;;1.73;;
83556;SDS011;73523;55.740;13.276;2024-01-30T03:44:11;2.23;;;1.80;;
83556;SDS011;73523;55.740;13.276;2024-01-30T03:46:36;1.73;;;1.50;;
83556;SDS011;73523;55.740;13.276;2024-01-30T03:49:01;2.33;;;1.63;;
83556;SDS011;73523;55.740;13.276;2024-01-30T03:51:28;1.75;;;1.55;;
83556;SDS011;73523;55.740;13.276;2024-01-30T03:53:53;2.50;;;1.50;;
83556;SDS011;73523;55.740;13.276;2024-01-30T03:56:18;2.30;;;1.60;;
83556;SDS011;73523;55.740;13.276;2024-01-30T03:58:44;1.60;;;1.30;;
83556;SDS011;73523;55.740;13.276;2024-01-30T04:01:12;3.00;;;1.70;;
83556;SDS011;73523;55.740;13.276;2024-01-30T04:03:38;1.77;;;1.35;;
83556;SDS011;73523;55.740;13.276;2024-01-30T04:06:04;1.70;;;1.40;;
83556;SDS011;73523;55.740;13.276;2024-01-30T04:08:29;1.70;;;1.40;;
83556;SDS011;73523;55.740;13.276;2024-01-30T04:10:55;1.87;;;1.50;;
83556;SDS011;73523;55.740;13.276;2024-01-30T04:13:20;1.75;;;1.50;;
83556;SDS011;73523;55.740;13.276;2024-01-30T04:15:45;2.17;;;1.50;;
83556;SDS011;73523;55.740;13.276;2024-01-30T04:18:11;1.90;;;1.50;;
83556;SDS011;73523;55.740;13.276;2024-01-30T04:20:36;1.70;;;1.47;;
83556;SDS011;73523;55.740;13.276;2024-01-30T04:23:01;2.27;;;1.47;;
83556;SDS011;73523;55.740;13.276;2024-01-30T04:25:27;1.90;;;1.42;;
83556;SDS011;73523;55.740;13.276;2024-01-30T04:27:52;1.60;;;1.50;;
83556;SDS011;73523;55.740;13.276;2024-01-30T04:30:17;1.67;;;1.40;;
83556;SDS011;73523;55.740;13.276;2024-01-30T04:32:43;1.85;;;1.50;;
83556;SDS011;73523;55.740;13.276;2024-01-30T04:35:08;2.13;;;1.60;;
83556;SDS011;73523;55.740;13.276;2024-01-30T04:37:34;1.90;;;1.60;;
83556;SDS011;73523;55.740;13.276;2024-01-30T04:39:59;2.93;;;1.70;;
83556;SDS011;73523;55.740;13.276;2024-01-30T04:42:25;1.95;;;1.63;;
83556;SDS011;73523;55.740;13.276;2024-01-30T04:44:50;2.13;;;1.73;;
83556;SDS011;73523;55.740;13.276;2024-01-30T04:47:16;1.88;;;1.50;;
83556;SDS011;73523;55.740;13.276;2024-01-30T04:49:41;1.93;;;1.57;;
83556;SDS011;73523;55.740;13.276;2024-01-30T04:52:07;1.60;;;1.27;;
83556;SDS011;73523;55.740;13.276;2024-01-30T04:54:34;2.20;;;1.60;;
83556;SDS011;73523;55.740;13.276;2024-01-30T04:57:00;1.70;;;1.40;;
83556;SDS011;73523;55.740;13.276;2024-01-30T04:59:25;1.97;;;1.77;;
83556;SDS011;73523;55.740;13.276;2024-01-30T05:01:51;2.37;;;1.67;;
83556;SDS011;73523;55.740;13.276;2024-01-30T05:04:16;3.30;;;1.57;;
83556;SDS011;73523;55.740;13.276;2024-01-30T05:06:41;2.70;;;1.80;;
83556;SDS011;73523;55.740;13.276;2024-01-30T05:09:07;3.13;;;2.33;;
83556;SDS011;73523;55.740;13.276;2024-01-30T05:11:36;14.52;;;12.40;;
83556;SDS011;73523;55.740;13.276;2024-01-30T05:14:03;15.53;;;12.33;;
83556;SDS011;73523;55.740;13.276;2024-01-30T05:16:28;12.70;;;9.60;;
83556;SDS011;73523;55.740;13.276;2024-01-30T05:18:54;10.60;;;8.47;;
83556;SDS011;73523;55.740;13.276;2024-01-30T05:21:19;9.67;;;7.73;;
83556;SDS011;73523;55.740;13.276;2024-01-30T05:23:44;8.33;;;6.37;;
83556;SDS011;73523;55.740;13.276;2024-01-30T05:26:09;8.10;;;5.87;;
83556;SDS011;73523;55.740;13.276;2024-01-30T05:28:35;7.40;;;6.03;;
83556;SDS011;73523;55.740;13.276;2024-01-30T05:31:01;6.00;;;5.40;;
83556;SDS011;73523;55.740;13.276;2024-01-30T05:33:26;6.50;;;5.83;;
83556;SDS011;73523;55.740;13.276;2024-01-30T05:35:52;7.80;;;4.97;;
83556;SDS011;73523;55.740;13.276;2024-01-30T05:38:19;7.95;;;5.55;;
83556;SDS011;73523;55.740;13.276;2024-01-30T05:40:45;9.90;;;5.47;;
83556;SDS011;73523;55.740;13.276;2024-01-30T05:43:10;10.20;;;5.00;;
83556;SDS011;73523;55.740;13.276;2024-01-30T05:45:36;6.30;;;4.80;;
83556;SDS011;73523;55.740;13.276;2024-01-30T05:48:01;6.13;;;4.30;;
83556;SDS011;73523;55.740;13.276;2024-01-30T05:50:26;6.27;;;4.70;;
83556;SDS011;73523;55.740;13.276;2024-01-30T05:52:52;5.30;;;4.22;;
83556;SDS011;73523;55.740;13.276;2024-01-30T05:55:17;6.83;;;4.30;;
83556;SDS011;73523;55.740;13.276;2024-01-30T05:57:43;5.97;;;4.53;;
83556;SDS011;73523;55.740;13.276;2024-01-30T06:00:08;5.20;;;4.20;;
83556;SDS011;73523;55.740;13.276;2024-01-30T06:02:34;5.63;;;3.87;;
83556;SDS011;73523;55.740;13.276;2024-01-30T06:04:59;5.37;;;3.73;;
83556;SDS011;73523;55.740;13.276;2024-01-30T06:07:24;5.33;;;4.20;;
83556;SDS011;73523;55.740;13.276;2024-01-30T06:09:49;5.60;;;4.03;;
83556;SDS011;73523;55.740;13.276;2024-01-30T06:12:15;4.90;;;3.93;;
83556;SDS011;73523;55.740;13.276;2024-01-30T06:14:40;4.80;;;3.63;;
83556;SDS011;73523;55.740;13.276;2024-01-30T06:17:07;4.00;;;3.40;;
83556;SDS011;73523;55.740;13.276;2024-01-30T06:19:33;4.45;;;3.80;;
83556;SDS011;73523;55.740;13.276;2024-01-30T06:21:58;5.40;;;3.53;;
83556;SDS011;73523;55.740;13.276;2024-01-30T06:24:24;5.00;;;3.08;;
83556;SDS011;73523;55.740;13.276;2024-01-30T06:26:49;5.47;;;3.60;;
83556;SDS011;73523;55.740;13.276;2024-01-30T06:29:14;5.57;;;3.27;;
83556;SDS011;73523;55.740;13.276;2024-01-30T06:31:41;3.88;;;3.25;;
83556;SDS011;73523;55.740;13.276;2024-01-30T06:34:07;4.60;;;3.17;;
83556;SDS011;73523;55.740;13.276;2024-01-30T06:36:32;3.92;;;2.80;;
83556;SDS011;73523;55.740;13.276;2024-01-30T06:38:58;4.40;;;3.20;;
83556;SDS011;73523;55.740;13.276;2024-01-30T06:41:23;3.53;;;2.70;;
83556;SDS011;73523;55.740;13.276;2024-01-30T06:43:49;3.50;;;2.85;;
83556;SDS011;73523;55.740;13.276;2024-01-30T06:46:14;4.53;;;3.10;;
83556;SDS011;73523;55.740;13.276;2024-01-30T06:48:40;4.67;;;2.83;;
83556;SDS011;73523;55.740;13.276;2024-01-30T06:51:05;3.25;;;2.40;;
83556;SDS011;73523;55.740;13.276;2024-01-30T06:53:31;3.38;;;2.53;;
83556;SDS011;73523;55.740;13.276;2024-01-30T06:55:56;2.97;;;2.50;;
83556;SDS011;73523;55.740;13.276;2024-01-30T06:58:22;5.00;;;2.57;;
83556;SDS011;73523;55.740;13.276;2024-01-30T07:00:47;3.73;;;2.70;;
83556;SDS011;73523;55.740;13.276;2024-01-30T07:03:12;3.10;;;2.40;;
83556;SDS011;73523;55.740;13.276;2024-01-30T07:05:38;3.30;;;2.77;;
83556;SDS011;73523;55.740;13.276;2024-01-30T07:08:03;3.80;;;2.50;;
83556;SDS011;73523;55.740;13.276;2024-01-30T07:10:29;2.80;;;2.47;;
83556;SDS011;73523;55.740;13.276;2024-01-30T07:12:54;3.87;;;2.30;;
83556;SDS011;73523;55.740;13.276;2024-01-30T07:15:19;2.50;;;2.20;;
83556;SDS011;73523;55.740;13.276;2024-01-30T07:17:45;3.17;;;2.25;;
83556;SDS011;73523;55.740;13.276;2024-01-30T07:20:11;2.80;;;2.17;;
83556;SDS011;73523;55.740;13.276;2024-01-30T07:22:36;3.37;;;2.63;;
83556;SDS011;73523;55.740;13.276;2024-01-30T07:25:02;3.33;;;2.30;;
83556;SDS011;73523;55.740;13.276;2024-01-30T07:27:27;3.10;;;2.10;;
83556;SDS011;73523;55.740;13.276;2024-01-30T07:29:52;2.33;;;1.93;;
83556;SDS011;73523;55.740;13.276;2024-01-30T07:32:18;2.70;;;2.10;;
83556;SDS011;73523;55.740;13.276;2024-01-30T07:34:43;2.30;;;2.07;;
83556;SDS011;73523;55.740;13.276;2024-01-30T07:37:09;3.60;;;2.20;;
83556;SDS011;73523;55.740;13.276;2024-01-30T07:39:35;3.03;;;1.90;;
83556;SDS011;73523;55.740;13.276;2024-01-30T07:42:01;2.45;;;2.25;;
83556;SDS011;73523;55.740;13.276;2024-01-30T07:44:26;2.53;;;2.00;;
83556;SDS011;73523;55.740;13.276;2024-01-30T07:46:51;2.45;;;2.05;;
83556;SDS011;73523;55.740;13.276;2024-01-30T07:49:17;3.37;;;2.10;;
83556;SDS011;73523;55.740;13.276;2024-01-30T07:51:42;3.17;;;2.13;;
83556;SDS011;73523;55.740;13.276;2024-01-30T07:54:11;2.35;;;2.03;;
83556;SDS011;73523;55.740;13.276;2024-01-30T07:56:36;3.33;;;2.03;;
83556;SDS011;73523;55.740;13.276;2024-01-30T07:59:01;2.30;;;2.03;;
83556;SDS011;73523;55.740;13.276;2024-01-30T08:01:27;2.73;;;1.80;;
83556;SDS011;73523;55.740;13.276;2024-01-30T08:03:52;2.10;;;1.90;;
83556;SDS011;73523;55.740;13.276;2024-01-30T08:06:18;2.87;;;2.40;;
83556;SDS011;73523;55.740;13.276;2024-01-30T08:08:43;2.28;;;2.00;;
83556;SDS011;73523;55.740;13.276;2024-01-30T08:11:09;2.50;;;2.00;;
83556;SDS011;73523;55.740;13.276;2024-01-30T08:13:34;1.95;;;1.75;;
83556;SDS011;73523;55.740;13.276;2024-01-30T08:15:59;3.27;;;2.20;;
83556;SDS011;73523;55.740;13.276;2024-01-30T08:18:25;2.47;;;1.90;;
83556;SDS011;73523;55.740;13.276;2024-01-30T08:20:50;2.37;;;2.03;;
83556;SDS011;73523;55.740;13.276;2024-01-30T08:23:16;2.13;;;1.93;;
83556;SDS011;73523;55.740;13.276;2024-01-30T08:25:41;2.73;;;1.80;;
83556;SDS011;73523;55.740;13.276;2024-01-30T08:28:06;2.40;;;2.00;;
83556;SDS011;73523;55.740;13.276;2024-01-30T08:30:32;2.55;;;1.73;;
83556;SDS011;73523;55.740;13.276;2024-01-30T08:32:57;2.40;;;1.90;;
83556;SDS011;73523;55.740;13.276;2024-01-30T08:35:23;2.50;;;1.90;;
83556;SDS011;73523;55.740;13.276;2024-01-30T08:37:48;2.17;;;1.90;;
83556;SDS011;73523;55.740;13.276;2024-01-30T08:40:13;2.47;;;1.80;;
83556;SDS011;73523;55.740;13.276;2024-01-30T08:42:39;2.10;;;1.80;;
83556;SDS011;73523;55.740;13.276;2024-01-30T08:45:04;2.93;;;1.77;;
83556;SDS011;73523;55.740;13.276;2024-01-30T08:47:30;1.70;;;1.57;;
83556;SDS011;73523;55.740;13.276;2024-01-30T08:49:56;2.20;;;1.83;;
83556;SDS011;73523;55.740;13.276;2024-01-30T08:52:21;3.43;;;1.80;;
83556;SDS011;73523;55.740;13.276;2024-01-30T08:54:46;1.97;;;1.60;;
83556;SDS011;73523;55.740;13.276;2024-01-30T08:57:12;2.37;;;1.83;;
83556;SDS011;73523;55.740;13.276;2024-01-30T08:59:37;2.67;;;1.97;;
83556;SDS011;73523;55.740;13.276;2024-01-30T09:02:02;2.57;;;1.83;;
83556;SDS011;73523;55.740;13.276;2024-01-30T09:04:29;2.60;;;1.90;;
83556;SDS011;73523;55.740;13.276;2024-01-30T09:06:54;1.90;;;1.60;;
83556;SDS011;73523;55.740;13.276;2024-01-30T09:09:20;1.90;;;1.50;;
83556;SDS011;73523;55.740;13.276;2024-01-30T09:11:45;1.95;;;1.75;;
83556;SDS011;73523;55.740;13.276;2024-01-30T09:14:11;2.07;;;1.87;;
83556;SDS011;73523;55.740;13.276;2024-01-30T09:16:37;2.00;;;1.65;;
83556;SDS011;73523;55.740;13.276;2024-01-30T09:19:02;1.98;;;1.77;;
83556;SDS011;73523;55.740;13.276;2024-01-30T09:21:27;1.90;;;1.70;;
83556;SDS011;73523;55.740;13.276;2024-01-30T09:24:00;2.00;;;1.77;;
83556;SDS011;73523;55.740;13.276;2024-01-30T09:26:28;1.80;;;1.70;;
83556;SDS011;73523;55.740;13.276;2024-01-30T09:28:53;1.55;;;1.33;;
83556;SDS011;73523;55.740;13.276;2024-01-30T09:31:18;1.67;;;1.57;;
83556;SDS011;73523;55.740;13.276;2024-01-30T09:33:43;2.03;;;1.67;;
83556;SDS011;73523;55.740;13.276;2024-01-30T09:36:12;1.80;;;1.40;;
83556;SDS011;73523;55.740;13.276;2024-01-30T09:38:40;1.65;;;1.55;;
83556;SDS011;73523;55.740;13.276;2024-01-30T09:41:05;1.40;;;1.30;;
83556;SDS011;73523;55.740;13.276;2024-01-30T09:43:35;1.97;;;1.50;;
83556;SDS011;73523;55.740;13.276;2024-01-30T09:46:02;1.52;;;1.33;;
83556;SDS011;73523;55.740;13.276;2024-01-30T09:48:30;1.52;;;1.42;;
83556;SDS011;73523;55.740;13.276;2024-01-30T09:50:56;2.00;;;1.63;;
83556;SDS011;73523;55.740;13.276;2024-01-30T09:53:22;1.47;;;1.30;;
83556;SDS011;73523;55.740;13.276;2024-01-30T09:55:48;1.50;;;1.40;;
83556;SDS011;73523;55.740;13.276;2024-01-30T09:58:15;1.20;;;1.10;;
83556;SDS011;73523;55.740;13.276;2024-01-30T10:00:41;1.30;;;1.20;;
83556;SDS011;73523;55.740;13.276;2024-01-30T10:03:06;1.20;;;1.10;;
83556;SDS011;73523;55.740;13.276;2024-01-30T10:05:31;1.20;;;1.10;;
83556;SDS011;73523;55.740;13.276;2024-01-30T10:07:59;1.90;;;1.10;;
83556;SDS011;73523;55.740;13.276;2024-01-30T10:10:25;1.20;;;1.10;;
83556;SDS011;73523;55.740;13.276;2024-01-30T10:12:50;1.47;;;1.30;;
83556;SDS011;73523;55.740;13.276;2024-01-30T10:15:17;1.30;;;1.20;;
83556;SDS011;73523;55.740;13.276;2024-01-30T10:17:44;1.23;;;1.10;;
83556;SDS011;73523;55.740;13.276;2024-01-30T10:20:10;1.15;;;1.05;;
83556;SDS011;73523;55.740;13.276;2024-01-30T10:22:35;1.65;;;1.27;;
83556;SDS011;73523;55.740;13.276;2024-01-30T10:25:01;1.20;;;1.00;;
83556;SDS011;73523;55.740;13.276;2024-01-30T10:27:26;1.23;;;1.13;;
83556;SDS011;73523;55.740;13.276;2024-01-30T10:29:52;1.38;;;1.27;;
83556;SDS011;73523;55.740;13.276;2024-01-30T10:32:17;1.40;;;1.10;;
83556;SDS011;73523;55.740;13.276;2024-01-30T10:34:43;1.97;;;1.10;;
83556;SDS011;73523;55.740;13.276;2024-01-30T10:37:09;1.30;;;1.20;;
83556;SDS011;73523;55.740;13.276;2024-01-30T10:39:41;1.08;;;0.95;;
83556;SDS011;73523;55.740;13.276;2024-01-30T10:42:12;1.17;;;1.07;;
83556;SDS011;73523;55.740;13.276;2024-01-30T10:47:18;1.00;;;0.90;;
83556;SDS011;73523;55.740;13.276;2024-01-30T10:49:49;1.17;;;0.90;;
83556;SDS011;73523;55.740;13.276;2024-01-30T10:52:17;0.90;;;0.90;;
83556;SDS011;73523;55.740;13.276;2024-01-30T10:54:44;0.93;;;0.90;;
83556;SDS011;73523;55.740;13.276;2024-01-30T10:57:09;1.38;;;1.13;;
83556;SDS011;73523;55.740;13.276;2024-01-30T10:59:37;1.65;;;1.10;;
83556;SDS011;73523;55.740;13.276;2024-01-30T11:02:03;1.20;;;1.00;;
83556;SDS011;73523;55.740;13.276;2024-01-30T11:04:38;1.30;;;0.87;;
83556;SDS011;73523;55.740;13.276;2024-01-30T11:07:18;1.13;;;1.00;;
83556;SDS011;73523;55.740;13.276;2024-01-30T11:09:52;1.10;;;1.00;;
83556;SDS011;73523;55.740;13.276;2024-01-30T11:12:27;1.20;;;1.10;;
83556;SDS011;73523;55.740;13.276;2024-01-30T11:17:49;1.10;;;1.00;;
83556;SDS011;73523;55.740;13.276;2024-01-30T11:20:18;0.90;;;0.80;;
83556;SDS011;73523;55.740;13.276;2024-01-30T11:22:48;1.20;;;1.10;;
83556;SDS011;73523;55.740;13.276;2024-01-30T11:25:16;2.10;;;1.27;;
83556;SDS011;73523;55.740;13.276;2024-01-30T11:27:43;1.58;;;1.27;;
83556;SDS011;73523;55.740;13.276;2024-01-30T11:30:09;1.42;;;1.20;;
83556;SDS011;73523;55.740;13.276;2024-01-30T11:32:35;1.73;;;1.23;;
83556;SDS011;73523;55.740;13.276;2024-01-30T11:35:03;1.33;;;1.23;;
83556;SDS011;73523;55.740;13.276;2024-01-30T11:37:31;1.50;;;1.38;;
83556;SDS011;73523;55.740;13.276;2024-01-30T11:39:57;1.60;;;1.45;;
83556;SDS011;73523;55.740;13.276;2024-01-30T11:42:24;1.55;;;1.35;;
83556;SDS011;73523;55.740;13.276;2024-01-30T11:44:52;1.52;;;1.27;;
83556;SDS011;73523;55.740;13.276;2024-01-30T11:47:17;1.77;;;1.38;;
83556;SDS011;73523;55.740;13.276;2024-01-30T11:49:43;1.90;;;1.37;;
83556;SDS011;73523;55.740;13.276;2024-01-30T11:52:09;1.67;;;1.40;;
83556;SDS011;73523;55.740;13.276;2024-01-30T11:54:34;1.40;;;1.20;;
83556;SDS011;73523;55.740;13.276;2024-01-30T11:57:00;1.73;;;1.27;;
83556;SDS011;73523;55.740;13.276;2024-01-30T11:59:25;1.90;;;1.47;;
83556;SDS011;73523;55.740;13.276;2024-01-30T12:01:51;1.58;;;1.27;;
83556;SDS011;73523;55.740;13.276;2024-01-30T12:04:17;1.45;;;1.35;;
83556;SDS011;73523;55.740;13.276;2024-01-30T12:06:42;1.83;;;1.63;;
83556;SDS011;73523;55.740;13.276;2024-01-30T12:09:08;1.50;;;1.30;;
83556;SDS011;73523;55.740;13.276;2024-01-30T12:11:47;1.25;;;1.15;;
83556;SDS011;73523;55.740;13.276;2024-01-30T12:14:13;1.60;;;1.23;;
83556;SDS011;73523;55.740;13.276;2024-01-30T12:16:40;1.67;;;1.35;;
83556;SDS011;73523;55.740;13.276;2024-01-30T12:19:06;1.65;;;1.42;;
83556;SDS011;73523;55.740;13.276;2024-01-30T12:21:33;2.20;;;1.60;;
83556;SDS011;73523;55.740;13.276;2024-01-30T12:23:59;1.77;;;1.30;;
83556;SDS011;73523;55.740;13.276;2024-01-30T12:26:25;1.38;;;1.25;;
83556;SDS011;73523;55.740;13.276;2024-01-30T12:28:51;1.63;;;1.20;;
83556;SDS011;73523;55.740;13.276;2024-01-30T12:31:27;1.70;;;1.40;;
83556;SDS011;73523;55.740;13.276;2024-01-30T12:33:53;1.98;;;1.30;;
83556;SDS011;73523;55.740;13.276;2024-01-30T12:36:18;1.58;;;1.45;;
83556;SDS011;73523;55.740;13.276;2024-01-30T12:38:44;1.73;;;1.30;;
83556;SDS011;73523;55.740;13.276;2024-01-30T12:41:10;1.50;;;1.40;;
83556;SDS011;73523;55.740;13.276;2024-01-30T12:43:35;1.70;;;1.48;;
83556;SDS011;73523;55.740;13.276;2024-01-30T12:46:01;2.10;;;1.63;;
83556;SDS011;73523;55.740;13.276;2024-01-30T12:48:28;1.70;;;1.40;;
83556;SDS011;73523;55.740;13.276;2024-01-30T12:50:54;1.90;;;1.30;;
83556;SDS011;73523;55.740;13.276;2024-01-30T12:53:20;1.40;;;1.17;;
83556;SDS011;73523;55.740;13.276;2024-01-30T12:55:45;1.40;;;1.20;;
83556;SDS011;73523;55.740;13.276;2024-01-30T12:58:11;1.40;;;1.30;;
83556;SDS011;73523;55.740;13.276;2024-01-30T13:00:36;1.27;;;1.17;;
83556;SDS011;73523;55.740;13.276;2024-01-30T13:03:01;1.50;;;1.10;;
83556;SDS011;73523;55.740;13.276;2024-01-30T13:05:27;1.40;;;1.20;;
83556;SDS011;73523;55.740;13.276;2024-01-30T13:07:52;1.33;;;1.20;;
83556;SDS011;73523;55.740;13.276;2024-01-30T13:10:18;1.10;;;1.00;;
83556;SDS011;73523;55.740;13.276;2024-01-30T13:12:44;1.17;;;1.07;;
83556;SDS011;73523;55.740;13.276;2024-01-30T13:15:09;1.30;;;1.20;;
83556;SDS011;73523;55.740;13.276;2024-01-30T13:17:36;1.60;;;1.30;;
83556;SDS011;73523;55.740;13.276;2024-01-30T13:20:01;1.30;;;1.10;;
83556;SDS011;73523;55.740;13.276;2024-01-30T13:22:28;1.02;;;0.90;;
83556;SDS011;73523;55.740;13.276;2024-01-30T13:24:54;1.20;;;1.10;;
83556;SDS011;73523;55.740;13.276;2024-01-30T13:27:19;1.43;;;1.20;;
83556;SDS011;73523;55.740;13.276;2024-01-30T13:29:45;1.20;;;1.10;;
83556;SDS011;73523;55.740;13.276;2024-01-30T13:32:10;1.00;;;0.90;;
83556;SDS011;73523;55.740;13.276;2024-01-30T13:34:36;1.17;;;1.00;;
83556;SDS011;73523;55.740;13.276;2024-01-30T13:37:01;1.20;;;1.10;;
83556;SDS011;73523;55.740;13.276;2024-01-30T13:39:26;1.55;;;1.20;;
83556;SDS011;73523;55.740;13.276;2024-01-30T13:41:52;1.13;;;1.02;;
83556;SDS011;73523;55.740;13.276;2024-01-30T13:44:18;1.57;;;1.40;;
83556;SDS011;73523;55.740;13.276;2024-01-30T13:46:43;1.50;;;1.30;;
83556;SDS011;73523;55.740;13.276;2024-01-30T13:49:09;1.20;;;1.10;;
83556;SDS011;73523;55.740;13.276;2024-01-30T13:51:35;1.70;;;1.40;;
83556;SDS011;73523;55.740;13.276;2024-01-30T13:54:00;1.40;;;1.10;;
83556;SDS011;73523;55.740;13.276;2024-01-30T13:56:25;1.37;;;1.20;;
83556;SDS011;73523;55.740;13.276;2024-01-30T13:58:52;1.40;;;1.30;;
83556;SDS011;73523;55.740;13.276;2024-01-30T14:01:18;1.50;;;1.10;;
83556;SDS011;73523;55.740;13.276;2024-01-30T14:03:44;1.13;;;1.00;;
83556;SDS011;73523;55.740;13.276;2024-01-30T14:06:09;1.25;;;1.10;;
83556;SDS011;73523;55.740;13.276;2024-01-30T14:08:36;1.00;;;0.90;;
83556;SDS011;73523;55.740;13.276;2024-01-30T14:11:02;1.08;;;0.98;;
83556;SDS011;73523;55.740;13.276;2024-01-30T14:13:28;1.20;;;1.10;;
83556;SDS011;73523;55.740;13.276;2024-01-30T14:15:55;1.10;;;1.00;;
83556;SDS011;73523;55.740;13.276;2024-01-30T14:18:21;1.63;;;1.10;;
83556;SDS011;73523;55.740;13.276;2024-01-30T14:20:46;1.40;;;0.90;;
83556;SDS011;73523;55.740;13.276;2024-01-30T14:23:12;1.35;;;1.10;;
83556;SDS011;73523;55.740;13.276;2024-01-30T14:25:37;1.17;;;1.07;;
83556;SDS011;73523;55.740;13.276;2024-01-30T14:28:02;1.30;;;1.20;;
83556;SDS011;73523;55.740;13.276;2024-01-30T14:30:28;1.20;;;1.10;;